Terminal Aerodrome Forecast
Issued by NWS Corpus Christi, TX

Home | Current Version | Previous Version | Text Only | Print | Product List | Glossary On
Versions: 1 2 3 4 5 6 7 8 9 10 11 12 13 14 15 16 17
000
FTUS44 KCRP 311700
TAFCRP
TAF
KCRP 311729Z 3118/0118 01012KT P6SM BKN050 OVC200
     FM312100 03014G20KT P6SM SCT100
     FM010200 02005KT P6SM SKC
     FM011500 04015G18KT P6SM SCT020=

USA.gov is the U.S. government's official web portal to all federal, state and local government web resources and services.